Thunder radar more information blitzortung!


Radar de pluja more information rain snow radar


Visita la nostra xarxa de llocs de meteo:

Template documentation
and downloads

And another site



No particular awareness of the weather is required.    There are no Weather-warnings

Pagina Historial Weather Underground text

Diari Resum Novembre 14, 2017 Unitats:  Imperial    Mètric   Tant
« Previous Dia
SegĂźent Dia »
Diari Setmana Mensual Anual Personalitzada
  Maxima: Minima: Media:
Temperatura: 60.3 °F 36 °F 48 °F
Punt de rosada: 30.9 °F 12.4 °F 22.5 °F
Humitat: 50 % 25 % 37 %
Wind Speed: 6.9 mph 0 mph 2.1 mph
RĂ fegues de vent: 10 mph - -
Vent:- - SSW
Pression baro: 30.2 in 30 in -
Precipitacions: 0 in    
Historical Graphs
 
 
Dades de taula per Novembre 14, 2017
Temps Temperatura Punt de rosada Pression baro Vent Wind Speed RĂ fegues de vent Humitat Rainfall Rate (Hourly)
00:00 46.6 °F 12.6 °F 30 in WSW 3 mph 6 mph 25 % 0 in
00:05 46.4 °F 12.4 °F 30 in WSW 5 mph 10 mph 25 % 0 in
00:10 46.4 °F 12.6 °F 30 in West 3 mph 8 mph 25 % 0 in
00:20 40.5 °F 12.9 °F 30 in WSW 1 mph 3 mph 32 % 0 in
00:30 40.1 °F 13.3 °F 30 in West 1 mph 3 mph 33 % 0 in
00:40 39.7 °F 12.9 °F 30 in West 1 mph 2 mph 33 % 0 in
00:50 39.4 °F 12.6 °F 30 in NW 1 mph 1 mph 33 % 0 in
01:00 39 °F 12.4 °F 30 in Calm   1 mph 33 % 0 in
01:10 38.8 °F 12.7 °F 30 in NNW 1 mph 1 mph 34 % 0 in
01:20 38.7 °F 12.7 °F 30 in Calm   1 mph 34 % 0 in
01:30 38.3 °F 12.4 °F 30.1 in Calm   1 mph 34 % 0 in
01:40 38.1 °F 12.7 °F 30.1 in Calm   1 mph 35 % 0 in
01:50 37.8 °F 12.6 °F 30.1 in West 1 mph 2 mph 35 % 0 in
02:00 38.3 °F 13.6 °F 30.1 in West 1 mph 1 mph 36 % 0 in
02:10 39 °F 14.4 °F 30.1 in North 1 mph 2 mph 36 % 0 in
02:20 39.6 °F 15.4 °F 30.1 in WNW 1 mph 1 mph 37 % 0 in
02:30 40.6 °F 16.3 °F 30.1 in West 1 mph 2 mph 37 % 0 in
02:40 41.2 °F 16.9 °F 30.1 in WNW 1 mph 2 mph 37 % 0 in
03:00 43 °F 19 °F 30.1 in NW 1 mph 3 mph 38 % 0 in
03:10 43.7 °F 19.8 °F 30.1 in NW 2 mph 3 mph 38 % 0 in
03:20 44.1 °F 19.9 °F 30.1 in NE 2 mph 2 mph 38 % 0 in
03:30 44.4 °F 20.5 °F 30.1 in NE 2 mph 5 mph 38 % 0 in
09:37 45.1 °F 21 °F 30.1 in ESE 2.3 mph 2.3 mph 38 % 0 in
09:38 45.3 °F 21.2 °F 30.1 in East 1.2 mph   38 % 0 in
09:43 45.3 °F 21.2 °F 30.1 in ENE 3.5 mph 3.5 mph 38 % 0 in
09:48 45.9 °F 21.7 °F 30.1 in West 2.3 mph 2.3 mph 38 % 0 in
09:53 46 °F 21.7 °F 30.1 in NNE 4.6 mph 4.6 mph 38 % 0 in
09:58 45.3 °F 20.5 °F 30.1 in ENE 4.6 mph 4.6 mph 37 % 0 in
10:03 46.2 °F 21.9 °F 30.1 in NNE 3.8 mph 3.8 mph 38 % 0 in
10:08 46.8 °F 22.5 °F 30.1 in ENE 2.3 mph 2.3 mph 38 % 0 in
10:13 46.8 °F 21.7 °F 30.1 in NNE 3.5 mph 3.5 mph 37 % 0 in
10:18 46.9 °F 21.9 °F 30.1 in WNW 3.5 mph 3.5 mph 37 % 0 in
10:23 47.5 °F 23.2 °F 30.1 in North 4.6 mph 4.6 mph 38 % 0 in
10:28 47.7 °F 22.6 °F 30.1 in NW 2.3 mph 2.3 mph 37 % 0 in
10:33 47.7 °F 22.6 °F 30.1 in NNE 5.8 mph 5.8 mph 37 % 0 in
10:38 47.3 °F 22.3 °F 30.1 in NNE 3.5 mph 3.5 mph 37 % 0 in
10:43 48.4 °F 23.4 °F 30.1 in SSE 2.3 mph   37 % 0 in
10:48 48.6 °F 23.4 °F 30.1 in NE 6.2 mph 6.2 mph 37 % 0 in
10:53 48.2 °F 23.2 °F 30.1 in NNE 5.8 mph 5.8 mph 37 % 0 in
10:58 48.7 °F 23.5 °F 30.1 in NNE 4 mph 4 mph 37 % 0 in
11:03 48.7 °F 23.5 °F 30.1 in North 4.6 mph 4.6 mph 37 % 0 in
11:08 49.1 °F 23.9 °F 30.1 in NE 4.6 mph 4.6 mph 37 % 0 in
11:13 50 °F 24.6 °F 30.1 in ESE 2.3 mph 2.3 mph 37 % 0 in
11:18 50.5 °F 25.2 °F 30.1 in ENE 3.5 mph 3.5 mph 37 % 0 in
11:23 49.8 °F 23.9 °F 30.1 in NE 5.8 mph 5.8 mph 36 % 0 in
11:28 49.8 °F 23.9 °F 30.1 in NNE 3.5 mph 3.5 mph 36 % 0 in
11:33 50.7 °F 25.3 °F 30.1 in WNW 2.3 mph 2.3 mph 37 % 0 in
11:38 51.3 °F 25.2 °F 30.1 in East 2.3 mph 2.3 mph 36 % 0 in
11:43 51.6 °F 25.5 °F 30.1 in NE 2.4 mph 2.4 mph 36 % 0 in
11:48 51.8 °F 25.7 °F 30.1 in NNW 3.5 mph 3.5 mph 36 % 0 in
11:53 51.8 °F 25.7 °F 30.1 in SW 2.3 mph 2.3 mph 36 % 0 in
11:58 52.3 °F 26.1 °F 30.1 in ENE 2.3 mph 2.3 mph 36 % 0 in
12:03 52.9 °F 26.6 °F 30.1 in North 3.5 mph 3.5 mph 36 % 0 in
12:08 52.5 °F 26.2 °F 30.1 in East 4.9 mph 4.9 mph 36 % 0 in
12:13 52.5 °F 26.2 °F 30.1 in NE 4.6 mph 4.6 mph 36 % 0 in
12:18 52.9 °F 26.6 °F 30.1 in NNE 2.3 mph 2.3 mph 36 % 0 in
12:23 53.1 °F 26.1 °F 30.1 in East 2.3 mph 2.3 mph 35 % 0 in
12:28 53.6 °F 26.6 °F 30.1 in SSW 2.3 mph 2.3 mph 35 % 0 in
12:33 53.8 °F 27.3 °F 30.1 in NE 3.5 mph 3.5 mph 36 % 0 in
12:38 53.8 °F 26.8 °F 30.1 in NE 3.5 mph 3.5 mph 35 % 0 in
12:43 54 °F 27 °F 30.1 in NE 3.5 mph 3.5 mph 35 % 0 in
12:48 54.7 °F 27.5 °F 30.1 in ENE 2.9 mph 2.9 mph 35 % 0 in
12:53 54 °F 27 °F 30.1 in ENE 4.3 mph 4.3 mph 35 % 0 in
12:58 54.1 °F 27.1 °F 30.1 in East 3.5 mph 3.5 mph 35 % 0 in
13:03 54.7 °F 27.5 °F 30.1 in ESE 2.3 mph 2.3 mph 35 % 0 in
13:08 55 °F 27.9 °F 30.1 in ENE 2.4 mph 2.4 mph 35 % 0 in
13:13 55.9 °F 28.8 °F 30.1 in SE 2.4 mph 2.4 mph 35 % 0 in
13:18 56.1 °F 29.5 °F 30.1 in West 3.5 mph 3.5 mph 36 % 0 in
13:23 56.7 °F 29.3 °F 30.1 in SW 4.6 mph 4.6 mph 35 % 0 in
13:28 56.5 °F 28.4 °F 30.1 in East 3.5 mph 3.5 mph 34 % 0 in
13:33 56.7 °F 29.3 °F 30.1 in NW 2.9 mph 2.9 mph 35 % 0 in
13:38 56.5 °F 28.4 °F 30.1 in NW 2.3 mph 2.3 mph 34 % 0 in
13:43 56.3 °F 28.2 °F 30.1 in NW 2.6 mph 2.6 mph 34 % 0 in
13:48 56.5 °F 28.4 °F 30.1 in SSE 2.3 mph 2.3 mph 34 % 0 in
13:53 56.5 °F 28.4 °F 30.1 in WSW 3.5 mph 3.5 mph 34 % 0 in
13:58 56.5 °F 28.4 °F 30.1 in SW 2.3 mph 2.3 mph 34 % 0 in
14:03 56.3 °F 28.2 °F 30.1 in NNE 2.3 mph 2.3 mph 34 % 0 in
14:08 56.5 °F 28.4 °F 30.1 in SE 2.4 mph 2.4 mph 34 % 0 in
14:13 56.3 °F 27.5 °F 30.1 in ESE 4.6 mph 4.6 mph 33 % 0 in
14:18 56.3 °F 27.5 °F 30.1 in ESE 5.8 mph 5.8 mph 33 % 0 in
14:23 56.7 °F 27.9 °F 30.1 in SSW 3.5 mph 3.5 mph 33 % 0 in
14:28 56.8 °F 28 °F 30.1 in West 2.4 mph 2.4 mph 33 % 0 in
14:33 57.6 °F 28.6 °F 30.1 in SW 4.6 mph 4.6 mph 33 % 0 in
14:38 57.2 °F 28.2 °F 30.1 in NE 5.8 mph 5.9 mph 33 % 0 in
14:43 57.2 °F 28.2 °F 30.1 in ESE 4.6 mph 4.6 mph 33 % 0 in
14:45 57.7 °F 29.5 °F 30.1 in NW 3.5 mph 3.5 mph 34 % 0 in
14:50 58.3 °F 30 °F 30.1 in WNW 6.9 mph 6.9 mph 34 % 0 in
14:55 58.1 °F 29.1 °F 30.1 in WSW 3.5 mph 3.5 mph 33 % 0 in
15:00 58.3 °F 29.3 °F 30.1 in SW 2.3 mph 2.3 mph 33 % 0 in
15:05 58.6 °F 29.7 °F 30.1 in WNW 3.5 mph 3.5 mph 33 % 0 in
15:10 58.8 °F 29.7 °F 30.1 in SW 4.6 mph 4.6 mph 33 % 0 in
15:15 59 °F 29.8 °F 30.1 in SW 3.5 mph 3.5 mph 33 % 0 in
15:20 59.7 °F 30.6 °F 30.1 in SSE 3.5 mph 3.5 mph 33 % 0 in
15:25 59.5 °F 30.4 °F 30.1 in SW 2.3 mph 2.3 mph 33 % 0 in
15:30 59.9 °F 30.7 °F 30.1 in WSW 3.5 mph 3.5 mph 33 % 0 in
15:35 60.1 °F 30.9 °F 30.1 in West 3.5 mph 3.5 mph 33 % 0 in
15:40 60.3 °F 30.9 °F 30.1 in SSE 3.5 mph 3.5 mph 33 % 0 in
15:45 60.1 °F 30.9 °F 30.1 in WSW 3.5 mph 3.5 mph 33 % 0 in
15:50 59.7 °F 29.8 °F 30.1 in SW 3.5 mph 3.5 mph 32 % 0 in
15:55 59.7 °F 29.8 °F 30.1 in WSW 2.3 mph 2.3 mph 32 % 0 in
16:00 59.4 °F 29.5 °F 30.1 in NW 4.6 mph 4.6 mph 32 % 0 in
16:05 59.4 °F 29.5 °F 30.1 in SW 4.6 mph 4.6 mph 32 % 0 in
16:10 59.5 °F 29.7 °F 30.1 in NW 2.3 mph 2.3 mph 32 % 0 in
16:15 59.7 °F 29.8 °F 30.1 in NW 2.3 mph 2.3 mph 32 % 0 in
16:20 59.5 °F 29.7 °F 30.1 in WSW 2.3 mph 2.3 mph 32 % 0 in
16:25 59.4 °F 29.5 °F 30.1 in NNE 3.5 mph 3.5 mph 32 % 0 in
16:30 58.8 °F 28.9 °F 30.1 in SSW 2.3 mph 2.3 mph 32 % 0 in
16:35 58.6 °F 28.8 °F 30.1 in West 2.3 mph 2.3 mph 32 % 0 in
16:40 58.3 °F 28.6 °F 30.1 in WSW 3.1 mph 3.1 mph 32 % 0 in
16:45 57.9 °F 28.2 °F 30.1 in WSW 2.3 mph 2.3 mph 32 % 0 in
16:50 57.6 °F 27.9 °F 30.1 in WNW 2.3 mph 2.3 mph 32 % 0 in
16:55 57 °F 27.3 °F 30.1 in SW 2.3 mph   32 % 0 in
17:00 56.8 °F 27.3 °F 30.1 in NNW 1.4 mph 1.4 mph 32 % 0 in
17:01 56.7 °F 27.1 °F 30.1 in NNW 2.3 mph 2.3 mph 32 % 0 in
17:06 56.5 °F 27 °F 30.1 in West 4.6 mph 4.6 mph 32 % 0 in
17:11 55.8 °F 26.2 °F 30.1 in West 3.5 mph 3.5 mph 32 % 0 in
17:16 55.2 °F 25.9 °F 30.1 in WNW 2.3 mph 2.3 mph 32 % 0 in
17:21 54.7 °F 25.3 °F 30.1 in West 3.5 mph 3.5 mph 32 % 0 in
17:26 54.1 °F 25 °F 30.1 in West 1.2 mph 1.2 mph 32 % 0 in
17:31 53.6 °F 24.4 °F 30.1 in WSW 2.4 mph 2.4 mph 32 % 0 in
17:36 53.2 °F 24.1 °F 30.1 in NW 2.3 mph 2.3 mph 32 % 0 in
17:41 52.9 °F 23.7 °F 30.1 in WNW 2.3 mph 2.3 mph 32 % 0 in
17:46 52.7 °F 23.5 °F 30.1 in WNW 2.3 mph 2.3 mph 32 % 0 in
17:51 52.3 °F 23.4 °F 30.1 in WNW 1.2 mph 1.2 mph 32 % 0 in
17:56 52 °F 23 °F 30.1 in NNW 2.4 mph 2.4 mph 32 % 0 in
18:01 51.8 °F 22.8 °F 30.1 in West 2.3 mph 2.3 mph 32 % 0 in
18:06 51.3 °F 22.5 °F 30.1 in NE 2.3 mph 2.3 mph 32 % 0 in
18:11 50.9 °F 22.1 °F 30.1 in NE 2.3 mph 2.3 mph 32 % 0 in
18:16 50.5 °F 21.7 °F 30.1 in NNE 2.3 mph 2.3 mph 32 % 0 in
18:21 50.2 °F 21.4 °F 30.1 in NNW 2.3 mph 2.3 mph 32 % 0 in
18:26 49.8 °F 21 °F 30.1 in West 1.2 mph 1.2 mph 32 % 0 in
18:31 49.6 °F 21.7 °F 30.1 in WSW 2.3 mph 2.3 mph 33 % 0 in
18:36 49.5 °F 21.6 °F 30.1 in SSW 2.4 mph   33 % 0 in
18:41 49.6 °F 21.7 °F 30.1 in WNW 1.2 mph   33 % 0 in
18:46 49.5 °F 21.6 °F 30.1 in WNW 1.2 mph   33 % 0 in
18:51 49.1 °F 21.2 °F 30.1 in WSW 2.3 mph 2.3 mph 33 % 0 in
18:56 49.1 °F 21.2 °F 30.1 in SSW 1.2 mph   33 % 0 in
19:01 49.3 °F 21.4 °F 30.1 in SW 3.5 mph 3.5 mph 33 % 0 in
19:05 39 °F 20.5 °F 30.1 in Calm     47 % 0 in
19:06 49.1 °F 21.2 °F 30.1 in SW 2.6 mph 2.6 mph 33 % 0 in
19:11 48.9 °F 21 °F 30.1 in West 2.4 mph 2.4 mph 33 % 0 in
19:15 38.8 °F 20.3 °F 30.1 in Calm     47 % 0 in
19:16 48.6 °F 20.7 °F 30.1 in West 2 mph 2 mph 33 % 0 in
19:17 48.4 °F 20.7 °F 30.1 in West 2.3 mph 2.3 mph 33 % 0 in
19:22 48.2 °F 20.5 °F 30.1 in WNW 1.6 mph 1.6 mph 33 % 0 in
19:25 38.5 °F 20.5 °F 30.1 in WNW 1 mph 1 mph 48 % 0 in
19:27 48.4 °F 20.7 °F 30.1 in WNW 1.4 mph 1.4 mph 33 % 0 in
19:32 48.2 °F 20.5 °F 30.1 in WNW 1.2 mph 1.2 mph 33 % 0 in
19:35 38.1 °F 20.1 °F 30.1 in Calm   1 mph 48 % 0 in
19:37 48.2 °F 20.5 °F 30.1 in WNW 1.2 mph   33 % 0 in
19:42 48.2 °F 20.5 °F 30.1 in Calm     33 % 0 in
19:45 38.5 °F 20.5 °F 30.1 in West 1 mph 2 mph 48 % 0 in
19:47 47.8 °F 20.1 °F 30.1 in NNW 1.4 mph 1.4 mph 33 % 0 in
19:52 47.7 °F 19.9 °F 30.1 in WNW 1.2 mph 1.2 mph 33 % 0 in
19:55 38.5 °F 20.5 °F 30.1 in Calm   1 mph 48 % 0 in
19:57 47.8 °F 20.1 °F 30.1 in Calm     33 % 0 in
20:02 48 °F 20.1 °F 30.1 in WNW 1.2 mph   33 % 0 in
20:05 38.5 °F 21 °F 30.1 in NE 1 mph 2 mph 49 % 0 in
20:07 48 °F 20.1 °F 30.1 in Calm     33 % 0 in
20:12 47.8 °F 20.8 °F 30.1 in WNW 1.2 mph 1.2 mph 34 % 0 in
20:15 38.7 °F 21 °F 30.1 in NE 1 mph 2 mph 49 % 0 in
20:17 47.3 °F 20.3 °F 30.1 in Calm     34 % 0 in
20:22 46.8 °F 19.8 °F 30.1 in West 2.3 mph 2.3 mph 34 % 0 in
20:25 38.3 °F 20.3 °F 30.1 in Calm   1 mph 48 % 0 in
20:27 46.8 °F 19.8 °F 30.1 in West 2 mph   34 % 0 in
20:32 46.4 °F 19.6 °F 30.1 in Calm     34 % 0 in
20:35 38.1 °F 20.1 °F 30.1 in Calm   1 mph 48 % 0 in
20:37 46 °F 19.2 °F 30.1 in Calm     34 % 0 in
20:42 45.7 °F 18.9 °F 30.1 in Calm     34 % 0 in
20:45 38.1 °F 20.1 °F 30.1 in WNW 1 mph 2 mph 48 % 0 in
20:47 45.7 °F 18.9 °F 30.1 in WSW 2.3 mph 2.3 mph 34 % 0 in
20:52 45.7 °F 18.9 °F 30.1 in Calm     34 % 0 in
20:55 37.8 °F 19.8 °F 30.1 in WNW 1 mph 2 mph 48 % 0 in
20:57 45.5 °F 18.7 °F 30.1 in NW 1.2 mph 1.2 mph 34 % 0 in
21:02 45.1 °F 19 °F 30.1 in North 2.3 mph 2.3 mph 35 % 0 in
21:05 37.6 °F 19.6 °F 30.1 in WNW 1 mph 2 mph 48 % 0 in
21:07 45 °F 18.9 °F 30.1 in NNW 1.4 mph 1.4 mph 35 % 0 in
21:12 44.8 °F 18.9 °F 30.1 in North 2.3 mph 2.3 mph 35 % 0 in
21:15 37 °F 19 °F 30.1 in West 1 mph 2 mph 48 % 0 in
21:17 44.6 °F 18.7 °F 30.1 in ENE 2.3 mph 2.3 mph 35 % 0 in
21:22 44.6 °F 18.7 °F 30.1 in Calm     35 % 0 in
21:25 37 °F 19.6 °F 30.1 in West 1 mph 3 mph 49 % 0 in
21:27 44.4 °F 19 °F 30.1 in ENE 1.4 mph   36 % 0 in
21:32 44.4 °F 19 °F 30.1 in ENE 1.2 mph 1.2 mph 36 % 0 in
21:35 37.2 °F 19.8 °F 30.1 in West 1 mph 2 mph 49 % 0 in
21:37 44.1 °F 18.9 °F 30.1 in East 2.3 mph 2.3 mph 36 % 0 in
21:42 44.1 °F 19.4 °F 30.1 in East 1.2 mph   37 % 0 in
21:45 37.8 °F 20.3 °F 30.1 in West 1 mph 3 mph 49 % 0 in
21:47 43.9 °F 19.2 °F 30.1 in NE 1.4 mph 1.4 mph 37 % 0 in
21:52 43.5 °F 18.9 °F 30.1 in NE 2.3 mph 2.3 mph 37 % 0 in
21:55 37.8 °F 20.3 °F 30.1 in Calm   3 mph 49 % 0 in
21:57 43.2 °F 18.7 °F 30.1 in Calm     37 % 0 in
22:02 43 °F 18.5 °F 30.1 in Calm     37 % 0 in
22:05 37.6 °F 20.7 °F 30.1 in WNW 1 mph 2 mph 50 % 0 in
22:07 42.8 °F 18.9 °F 30.1 in NNE 1.2 mph 1.2 mph 38 % 0 in
22:12 42.8 °F 18.9 °F 30.1 in Calm     38 % 0 in
22:15 37.6 °F 20.1 °F 30.1 in West 1 mph 2 mph 49 % 0 in
22:17 42.8 °F 18.9 °F 30.1 in Calm     38 % 0 in
22:22 42.6 °F 19.4 °F 30.1 in ENE 1.6 mph   39 % 0 in
22:25 37.9 °F 20.5 °F 30.1 in NW 1 mph 2 mph 49 % 0 in
22:27 42.4 °F 19.2 °F 30.1 in NE 1.4 mph 1.4 mph 39 % 0 in
22:32 42.3 °F 19.6 °F 30.1 in NE 1.2 mph   40 % 0 in
22:35 37.9 °F 20.5 °F 30.1 in NNE 1 mph 3 mph 49 % 0 in
22:37 41.9 °F 19.2 °F 30.1 in NE 1.2 mph   40 % 0 in
22:42 41.7 °F 19 °F 30.1 in Calm     40 % 0 in
22:45 37.6 °F 20.1 °F 30.1 in Calm     49 % 0 in
22:47 41.5 °F 19.6 °F 30.1 in Calm     41 % 0 in
22:52 41.2 °F 19.2 °F 30.2 in Calm     41 % 0 in
22:55 37.4 °F 19.9 °F 30.1 in NNW 1 mph 2 mph 49 % 0 in
22:57 41 °F 19 °F 30.2 in Calm     41 % 0 in
23:02 40.6 °F 19.2 °F 30.2 in Calm     42 % 0 in
23:05 37.4 °F 20.5 °F 30.1 in Calm   2 mph 50 % 0 in
23:07 40.5 °F 19 °F 30.1 in Calm     42 % 0 in
23:12 40.1 °F 18.9 °F 30.1 in Calm     42 % 0 in
23:15 37 °F 20.1 °F 30.1 in NNW 1 mph 2 mph 50 % 0 in
23:17 40.1 °F 18.9 °F 30.1 in WSW 1.2 mph 1.4 mph 42 % 0 in
23:22 39.9 °F 18.7 °F 30.1 in WSW 2.4 mph 2.4 mph 42 % 0 in
23:25 36.7 °F 19.8 °F 30.1 in Calm   2 mph 50 % 0 in
23:27 39.9 °F 18.7 °F 30.1 in SW 2.3 mph 2.3 mph 42 % 0 in
23:32 39.7 °F 18.5 °F 30.1 in SW 2.4 mph 2.4 mph 42 % 0 in
23:37 39.7 °F 18.5 °F 30.1 in WSW 2.3 mph 2.4 mph 42 % 0 in
23:42 39.6 °F 18.9 °F 30.1 in WSW 1.2 mph   43 % 0 in
23:45 36 °F 19 °F 30.1 in West 1 mph 1 mph 50 % 0 in
23:47 39.6 °F 18.9 °F 30.1 in WSW 1.6 mph   43 % 0 in
23:52 39.7 °F 19 °F 30.1 in SW 2.3 mph 2.3 mph 43 % 0 in
23:55 36.1 °F 19.2 °F 30.1 in West 1 mph 2 mph 50 % 0 in
23:57 39.7 °F 19.6 °F 30.1 in Calm     44 % 0 in
Meteo Sesrovires
Elogis d' Weather Underground - 3.75 mb

Guio original per  Jim McMurry - jmcmurry@mwt.net Adaptat per a la plantilla per  Wim van der Kuil - Leuven-Template.eu

Trobareu la nostra informacio del temps tambe a:

Weather Underground

AWEKAS